Time;durP1;ratioP1;P1;durP2;ratioP2;P2;SDS_P1;SDS_P2;PMS_P1;PMS_P2;Temp;Humidity;BMP_temperature;BMP_pressure;BME280_temperature;BME280_humidity;BME280_pressure;Samples;Min_cycle;Max_cycle;Signal;HPM_P1;HPM_P2
2022/03/03 00:01:20;;;;;;;199.55;76.40;;;;;;;-0.97;100.00;102235.00;4962489;28;20040;-72
2022/03/03 00:03:46;;;;;;;200.48;74.25;;;;;;;-1.08;100.00;102227.78;4954835;28;20050;-72
2022/03/03 00:06:11;;;;;;;207.75;75.53;;;;;;;-1.17;100.00;102232.84;4952634;28;20057;-72
2022/03/03 00:08:37;;;;;;;218.98;78.13;;;;;;;-1.21;100.00;102222.47;4975995;28;20083;-72
2022/03/03 00:11:02;;;;;;;217.95;79.93;;;;;;;-1.14;100.00;102227.34;4952915;28;20077;-72
2022/03/03 00:13:28;;;;;;;261.58;84.50;;;;;;;-1.09;100.00;102223.47;4962742;28;20507;-72
2022/03/03 00:15:53;;;;;;;267.55;90.43;;;;;;;-0.92;100.00;102216.16;4956749;28;20042;-72
2022/03/03 00:18:19;;;;;;;264.35;86.88;;;;;;;-0.78;100.00;102218.72;4952404;28;20042;-72
2022/03/03 00:20:44;;;;;;;300.55;94.78;;;;;;;-0.69;100.00;102211.94;4962108;28;20034;-72
2022/03/03 00:23:10;;;;;;;257.58;87.10;;;;;;;-0.68;100.00;102219.78;4947429;28;20066;-72
2022/03/03 00:25:35;;;;;;;308.95;97.05;;;;;;;-0.69;100.00;102222.53;4961884;28;20080;-72
2022/03/03 00:28:04;;;;;;;309.90;96.95;;;;;;;-0.71;100.00;102219.97;4959666;28;20378;-72
2022/03/03 00:30:30;;;;;;;283.63;91.65;;;;;;;-0.82;100.00;102218.06;4954094;28;20046;-72
2022/03/03 00:32:55;;;;;;;286.27;93.13;;;;;;;-0.86;100.00;102219.25;4963983;28;20033;-72
2022/03/03 00:35:21;;;;;;;275.27;90.15;;;;;;;-0.84;100.00;102214.69;4955291;28;20049;-71
2022/03/03 00:37:46;;;;;;;268.52;90.90;;;;;;;-0.85;100.00;102210.34;4963337;28;20033;-73
2022/03/03 00:40:12;;;;;;;283.52;93.18;;;;;;;-0.93;100.00;102202.09;4954561;28;20049;-71
2022/03/03 00:42:39;;;;;;;305.23;95.55;;;;;;;-0.96;100.00;102199.66;4951758;28;20052;-72
2022/03/03 00:45:05;;;;;;;290.13;90.63;;;;;;;-1.03;100.00;102187.81;4966129;28;20049;-72
2022/03/03 00:47:31;;;;;;;268.90;89.60;;;;;;;-1.03;100.00;102193.94;4943845;28;20117;-71
2022/03/03 00:49:56;;;;;;;281.60;90.15;;;;;;;-0.99;100.00;102191.91;4959597;28;20037;-71
2022/03/03 00:52:21;;;;;;;278.58;89.78;;;;;;;-1.00;100.00;102187.59;4957890;28;20111;-71
2022/03/03 00:54:47;;;;;;;249.48;86.72;;;;;;;-1.06;100.00;102172.13;4953920;28;20396;-71
2022/03/03 00:57:12;;;;;;;274.27;89.80;;;;;;;-1.01;100.00;102180.63;4981476;28;21842;-71
2022/03/03 00:59:38;;;;;;;266.52;85.40;;;;;;;-1.04;100.00;102178.19;4952625;28;20054;-71
2022/03/03 01:02:03;;;;;;;267.80;87.82;;;;;;;-1.12;100.00;102177.84;4980847;28;20041;-71
2022/03/03 01:04:29;;;;;;;253.63;85.47;;;;;;;-1.18;100.00;102170.34;4954602;28;20127;-71
2022/03/03 01:06:54;;;;;;;245.75;84.18;;;;;;;-1.21;100.00;102169.59;4980595;28;20041;-70
2022/03/03 01:09:20;;;;;;;248.63;84.03;;;;;;;-1.29;100.00;102173.72;4961522;28;20037;-70
2022/03/03 01:11:45;;;;;;;248.02;79.47;;;;;;;-1.40;100.00;102168.28;4952784;28;20148;-70
2022/03/03 01:14:11;;;;;;;235.48;77.63;;;;;;;-1.60;100.00;102166.97;4965464;28;20029;-70
2022/03/03 01:16:36;;;;;;;234.52;78.35;;;;;;;-1.64;100.00;102176.06;4960629;28;20042;-70
2022/03/03 01:19:02;;;;;;;266.50;87.00;;;;;;;-1.59;100.00;102171.31;4958750;28;22793;-70
2022/03/03 01:21:27;;;;;;;236.30;80.65;;;;;;;-1.49;100.00;102161.81;4965652;28;20032;-70
2022/03/03 01:23:53;;;;;;;250.48;85.10;;;;;;;-1.36;100.00;102157.41;4965238;28;20053;-70
2022/03/03 01:26:19;;;;;;;239.82;85.18;;;;;;;-1.20;100.00;102173.91;4980331;28;20029;-70
2022/03/03 01:28:44;;;;;;;256.23;84.40;;;;;;;-1.14;100.00;102163.88;4950594;28;20183;-70
2022/03/03 01:31:10;;;;;;;245.73;85.60;;;;;;;-1.06;100.00;102166.84;4980402;28;20030;-69
2022/03/03 01:33:36;;;;;;;232.05;82.80;;;;;;;-1.06;100.00;102169.50;4979861;28;20138;-69
2022/03/03 01:36:01;;;;;;;243.95;83.35;;;;;;;-1.13;100.00;102160.28;4963690;28;20064;-69
2022/03/03 01:38:26;;;;;;;255.60;87.53;;;;;;;-1.09;100.00;102167.06;4978995;28;20038;-69
2022/03/03 01:40:52;;;;;;;237.40;83.85;;;;;;;-1.09;100.00;102165.28;4952715;28;20534;-69
2022/03/03 01:43:17;;;;;;;252.10;84.70;;;;;;;-1.08;100.00;102168.75;4979742;28;20030;-69
2022/03/03 01:45:43;;;;;;;229.38;83.78;;;;;;;-0.99;100.00;102166.31;4979509;28;20045;-69
2022/03/03 01:48:08;;;;;;;237.93;86.53;;;;;;;-0.98;100.00;102164.53;4963913;28;20634;-69
2022/03/03 01:50:34;;;;;;;211.48;79.10;;;;;;;-1.09;100.00;102156.47;4963954;28;20034;-69
2022/03/03 01:52:59;;;;;;;216.27;78.53;;;;;;;-1.24;100.00;102164.50;4966847;28;20049;-69
2022/03/03 01:55:25;;;;;;;203.82;74.97;;;;;;;-1.37;100.00;102168.06;4982557;28;20076;-69
2022/03/03 01:57:51;;;;;;;181.30;67.15;;;;;;;-1.59;100.00;102161.56;4982430;28;20065;-69
2022/03/03 02:00:17;;;;;;;172.50;67.95;;;;;;;-1.79;100.00;102154.09;4967806;28;20610;-69
2022/03/03 02:02:43;;;;;;;165.38;67.72;;;;;;;-1.88;100.00;102152.94;4952879;28;20061;-69
2022/03/03 02:05:09;;;;;;;193.82;72.20;;;;;;;-1.91;100.00;102147.84;4969141;28;20073;-69
2022/03/03 02:07:35;;;;;;;185.20;70.32;;;;;;;-1.91;100.00;102142.56;4970077;28;20131;-68
2022/03/03 02:10:02;;;;;;;189.70;70.40;;;;;;;-2.00;100.00;102143.16;4981655;28;20034;-68
2022/03/03 02:12:28;;;;;;;177.60;67.63;;;;;;;-2.14;100.00;102132.63;4971142;28;20061;-69
2022/03/03 02:14:54;;;;;;;189.80;68.93;;;;;;;-2.23;100.00;102132.28;4983710;28;20049;-68
2022/03/03 02:17:19;;;;;;;180.40;66.95;;;;;;;-2.32;100.00;102126.75;4967516;28;20057;-68
2022/03/03 02:19:45;;;;;;;178.18;66.72;;;;;;;-2.38;100.00;102133.28;4983557;28;20110;-68
2022/03/03 02:22:10;;;;;;;197.68;66.18;;;;;;;-2.41;100.00;102138.75;4980585;28;20049;-68
2022/03/03 02:24:37;;;;;;;209.43;72.07;;;;;;;-2.40;100.00;102124.59;4943276;28;20128;-68
2022/03/03 02:27:03;;;;;;;221.82;76.82;;;;;;;-2.37;100.00;102134.97;4965104;28;20033;-68
2022/03/03 02:29:29;;;;;;;244.02;80.85;;;;;;;-2.35;100.00;102121.66;4949761;28;20049;-68
2022/03/03 02:31:55;;;;;;;239.10;78.22;;;;;;;-2.28;100.00;102123.81;4983583;28;20041;-69
2022/03/03 02:34:20;;;;;;;225.90;74.80;;;;;;;-2.33;100.00;102125.91;4979293;28;20037;-69
2022/03/03 02:36:46;;;;;;;215.25;74.65;;;;;;;-2.46;100.00;102106.50;4956747;28;22694;-69
2022/03/03 02:39:11;;;;;;;205.98;73.82;;;;;;;-2.54;100.00;102116.69;4982806;28;20037;-69
2022/03/03 02:41:37;;;;;;;190.80;69.75;;;;;;;-2.60;100.00;102109.16;4953597;28;20142;-68
2022/03/03 02:44:03;;;;;;;217.55;77.40;;;;;;;-2.66;100.00;102113.91;4984157;28;20037;-68
2022/03/03 02:46:29;;;;;;;220.18;74.07;;;;;;;-2.30;100.00;102115.16;4977476;28;20044;-69
2022/03/03 02:48:55;;;;;;;222.73;77.45;;;;;;;-2.16;100.00;102111.63;4954444;28;20076;-69
2022/03/03 02:51:21;;;;;;;221.93;73.50;;;;;;;-2.18;100.00;102108.22;4984409;28;20045;-69
2022/03/03 02:53:46;;;;;;;214.30;75.95;;;;;;;-2.28;100.00;102112.41;4966867;28;20068;-69
2022/03/03 02:56:12;;;;;;;198.52;72.65;;;;;;;-2.37;100.00;102103.28;4984452;28;20183;-69
2022/03/03 02:58:37;;;;;;;213.93;74.03;;;;;;;-2.42;100.00;102116.78;4976483;28;20073;-70
2022/03/03 03:01:04;;;;;;;214.80;76.93;;;;;;;-2.42;100.00;102116.78;4958515;28;20492;-69
2022/03/03 03:03:29;;;;;;;218.20;74.47;;;;;;;-2.45;100.00;102116.13;4982172;28;20064;-70
2022/03/03 03:05:55;;;;;;;219.70;75.30;;;;;;;-2.56;100.00;102118.56;4946939;28;20053;-70
2022/03/03 03:08:20;;;;;;;261.98;82.65;;;;;;;-2.51;100.00;102121.78;4971348;28;20037;-70
2022/03/03 03:10:46;;;;;;;274.30;86.30;;;;;;;-2.32;100.00;102116.19;4975016;28;20033;-70
2022/03/03 03:13:15;;;;;;;278.77;91.63;;;;;;;-2.26;100.00;102127.19;4953467;28;20056;-70
2022/03/03 03:15:43;;;;;;;269.05;91.05;;;;;;;-2.14;100.00;102124.72;4982374;28;20038;-70
2022/03/03 03:18:19;;;;;;;286.50;91.22;;;;;;;-2.02;100.00;102129.22;4948250;28;20053;-69
2022/03/03 03:20:49;;;;;;;283.17;90.40;;;;;;;-2.07;100.00;102115.44;4982584;28;20021;-69
2022/03/03 03:23:16;;;;;;;287.77;94.93;;;;;;;-2.12;100.00;102112.28;4957537;28;21031;-69
2022/03/03 03:25:43;;;;;;;274.27;90.45;;;;;;;-2.06;100.00;102123.28;4977382;28;20059;-69
2022/03/03 03:28:12;;;;;;;273.30;91.50;;;;;;;-2.04;100.00;102123.16;4981477;28;20030;-70
2022/03/03 03:30:38;;;;;;;308.00;98.47;;;;;;;-2.07;100.00;102132.16;4947471;28;20073;-69
2022/03/03 03:33:04;;;;;;;296.00;97.18;;;;;;;-1.93;100.00;102128.59;4968393;28;21122;-70
2022/03/03 03:35:29;;;;;;;322.67;98.32;;;;;;;-1.80;100.00;102134.78;4953504;28;20678;-69
2022/03/03 03:37:55;;;;;;;313.27;98.05;;;;;;;-1.84;100.00;102128.00;4968921;28;20037;-69
2022/03/03 03:40:20;;;;;;;299.23;96.43;;;;;;;-1.94;100.00;102121.63;4985679;28;20469;-69
2022/03/03 03:42:46;;;;;;;295.73;94.18;;;;;;;-1.93;100.00;102125.94;4946915;28;20521;-71
2022/03/03 03:45:12;;;;;;;281.45;95.13;;;;;;;-1.96;100.00;102128.81;4980936;28;20044;-69
2022/03/03 03:47:39;;;;;;;296.98;95.45;;;;;;;-1.98;100.00;102128.06;4946743;28;20046;-69
2022/03/03 03:50:08;;;;;;;280.80;91.65;;;;;;;-2.10;100.00;102123.59;4962837;28;20036;-69
2022/03/03 03:52:34;;;;;;;266.90;91.10;;;;;;;-2.17;100.00;102125.78;4962968;28;20419;-69
2022/03/03 03:54:59;;;;;;;255.07;85.43;;;;;;;-2.20;100.00;102125.97;4962519;28;20454;-69
2022/03/03 03:57:25;;;;;;;237.88;83.53;;;;;;;-2.36;100.00;102131.38;4981021;28;20056;-69
2022/03/03 03:59:50;;;;;;;255.00;85.82;;;;;;;-2.39;100.00;102126.28;4963759;28;20123;-69
2022/03/03 04:02:16;;;;;;;241.07;80.38;;;;;;;-2.53;100.00;102110.47;4965217;28;20029;-70
2022/03/03 04:04:42;;;;;;;226.10;76.57;;;;;;;-2.62;100.00;102111.06;4962963;28;20037;-69
2022/03/03 04:07:07;;;;;;;258.75;83.65;;;;;;;-2.74;100.00;102110.91;4965946;28;20096;-69
2022/03/03 04:09:33;;;;;;;222.00;79.40;;;;;;;-2.79;100.00;102110.31;4980889;28;20049;-69
2022/03/03 04:11:58;;;;;;;222.77;78.20;;;;;;;-2.75;100.00;102114.47;4966727;28;20080;-69
2022/03/03 04:14:24;;;;;;;216.98;73.43;;;;;;;-2.81;100.00;102104.28;4983222;28;20168;-69
2022/03/03 04:16:49;;;;;;;203.10;75.65;;;;;;;-2.73;100.00;102112.59;4982534;28;20610;-70
2022/03/03 04:19:15;;;;;;;210.45;76.63;;;;;;;-2.66;100.00;102105.97;4968411;28;20045;-69
2022/03/03 04:21:40;;;;;;;195.73;74.28;;;;;;;-2.66;100.00;102098.06;4983476;28;24078;-69
2022/03/03 04:24:06;;;;;;;207.23;73.75;;;;;;;-2.72;100.00;102100.25;4945025;28;20089;-69
2022/03/03 04:26:33;;;;;;;188.80;70.75;;;;;;;-2.87;100.00;102104.69;4979703;28;20030;-69
2022/03/03 04:28:58;;;;;;;225.07;74.68;;;;;;;-2.98;100.00;102101.88;4984000;28;20136;-69
2022/03/03 04:31:24;;;;;;;200.95;73.97;;;;;;;-3.04;100.00;102104.88;4966501;28;20050;-69
2022/03/03 04:33:49;;;;;;;202.00;73.32;;;;;;;-3.08;100.00;102098.09;4982422;28;20029;-69
2022/03/03 04:36:15;;;;;;;208.35;73.60;;;;;;;-3.16;100.00;102096.78;4968037;28;20050;-70
2022/03/03 04:38:40;;;;;;;197.23;69.63;;;;;;;-3.23;100.00;102092.81;4982782;28;20046;-69
2022/03/03 04:41:06;;;;;;;195.35;71.05;;;;;;;-3.26;100.00;102087.72;4979845;28;20033;-70
2022/03/03 04:43:31;;;;;;;209.23;70.85;;;;;;;-3.27;100.00;102096.56;4949111;28;20041;-70
2022/03/03 04:45:57;;;;;;;172.38;65.35;;;;;;;-3.32;100.00;102093.38;4981954;28;20033;-68
2022/03/03 04:48:29;;;;;;;188.20;67.43;;;;;;;-3.45;100.00;102084.50;4964777;28;20188;-68
2022/03/03 04:50:55;;;;;;;172.27;67.47;;;;;;;-3.52;100.00;102091.06;4968521;28;20573;-69
2022/03/03 04:53:21;;;;;;;201.55;70.90;;;;;;;-3.49;100.00;102096.16;4957054;28;20115;-69
2022/03/03 04:55:47;;;;;;;215.20;72.95;;;;;;;-3.39;100.00;102086.78;4947029;28;20058;-69
2022/03/03 04:58:13;;;;;;;219.27;76.45;;;;;;;-3.12;100.00;102085.09;4962528;28;20077;-69
2022/03/03 05:00:39;;;;;;;197.80;73.60;;;;;;;-2.98;100.00;102071.06;4944160;28;20572;-69
2022/03/03 05:03:04;;;;;;;228.32;80.78;;;;;;;-2.93;100.00;102068.16;4947388;28;20479;-69
2022/03/03 05:05:30;;;;;;;223.82;78.93;;;;;;;-2.87;100.00;102067.78;4954603;28;20892;-69
2022/03/03 05:07:55;;;;;;;234.93;79.60;;;;;;;-2.93;100.00;102062.88;4938292;28;20058;-69
2022/03/03 05:10:21;;;;;;;212.30;73.70;;;;;;;-3.01;100.00;102065.16;4961725;28;20030;-69
2022/03/03 05:12:46;;;;;;;218.23;77.47;;;;;;;-3.09;100.00;102062.13;4947248;28;20054;-69
2022/03/03 05:15:11;;;;;;;221.23;77.65;;;;;;;-3.09;100.00;102062.13;4950167;28;20532;-69
2022/03/03 05:17:37;;;;;;;203.95;77.35;;;;;;;-3.09;100.00;102064.75;4953375;28;20042;-69
2022/03/03 05:20:03;;;;;;;194.43;74.55;;;;;;;-3.05;100.00;102059.22;4936939;28;20417;-69
2022/03/03 05:22:29;;;;;;;208.60;75.65;;;;;;;-3.02;100.00;102058.16;4941045;28;20046;-69
2022/03/03 05:24:55;;;;;;;186.75;70.68;;;;;;;-3.03;100.00;102053.84;4942402;28;20084;-69
2022/03/03 05:27:21;;;;;;;214.35;75.40;;;;;;;-3.04;100.00;102060.06;4943375;28;20100;-69
2022/03/03 05:29:46;;;;;;;212.40;76.10;;;;;;;-3.07;100.00;102060.25;4955335;28;20034;-69
2022/03/03 05:32:12;;;;;;;202.55;72.30;;;;;;;-3.14;100.00;102062.41;4952875;28;20050;-69
2022/03/03 05:34:38;;;;;;;204.25;76.25;;;;;;;-3.15;100.00;102063.34;4961757;28;20038;-69
2022/03/03 05:37:05;;;;;;;234.50;82.45;;;;;;;-2.89;100.00;102059.09;4929387;28;20050;-69
2022/03/03 05:39:31;;;;;;;232.52;84.68;;;;;;;-2.83;100.00;102053.44;4962147;28;20046;-69
2022/03/03 05:41:57;;;;;;;256.42;86.55;;;;;;;-2.82;100.00;102039.31;4938556;28;20173;-69
2022/03/03 05:44:22;;;;;;;231.80;83.68;;;;;;;-2.78;100.00;102056.63;4950960;28;20046;-69
2022/03/03 05:46:48;;;;;;;225.35;82.57;;;;;;;-2.81;100.00;102046.25;4942999;28;20041;-69
2022/03/03 05:49:15;;;;;;;235.45;83.63;;;;;;;-2.73;100.00;102054.56;4934551;28;20057;-69
2022/03/03 05:51:41;;;;;;;226.18;83.70;;;;;;;-2.80;100.00;102057.69;4942668;28;20038;-69
2022/03/03 05:54:06;;;;;;;243.57;85.38;;;;;;;-2.87;100.00;102065.13;4955296;28;20061;-69
2022/03/03 05:56:32;;;;;;;234.05;81.00;;;;;;;-2.86;100.00;102068.63;4968754;28;20074;-69
2022/03/03 05:59:02;;;;;;;205.23;78.40;;;;;;;-2.99;100.00;102068.50;4963686;28;20046;-69
2022/03/03 06:01:28;;;;;;;215.88;78.07;;;;;;;-3.09;100.00;102076.13;4961568;28;20069;-69
2022/03/03 06:03:54;;;;;;;205.57;77.25;;;;;;;-3.12;100.00;102084.25;4961035;28;20041;-69
2022/03/03 06:06:28;;;;;;;226.20;80.18;;;;;;;-3.01;100.00;102080.97;4955166;28;20477;-69
2022/03/03 06:09:00;;;;;;;212.85;79.72;;;;;;;-3.02;100.00;102087.16;4960825;28;20046;-69
2022/03/03 06:11:27;;;;;;;237.07;83.45;;;;;;;-2.92;100.00;102080.38;4981135;28;20029;-69
2022/03/03 06:14:01;;;;;;;233.55;81.97;;;;;;;-2.89;100.00;102086.31;4963617;28;20069;-69
2022/03/03 06:16:27;;;;;;;228.70;81.35;;;;;;;-2.88;100.00;102081.88;4947062;28;20112;-69
2022/03/03 06:18:52;;;;;;;246.55;89.68;;;;;;;-2.83;100.00;102093.00;4944409;28;20042;-69
2022/03/03 06:21:18;;;;;;;250.82;88.57;;;;;;;-2.80;100.00;102086.69;4979039;28;20044;-69
2022/03/03 06:23:44;;;;;;;227.23;82.47;;;;;;;-2.77;100.00;102090.00;4980790;28;20033;-70
2022/03/03 06:26:17;;;;;;;263.65;89.75;;;;;;;-2.71;100.00;102092.22;4964502;28;20203;-70
2022/03/03 06:28:44;;;;;;;229.05;86.65;;;;;;;-2.74;100.00;102092.44;4966047;28;21054;-70
2022/03/03 06:31:09;;;;;;;243.63;86.38;;;;;;;-2.72;100.00;102092.31;4962589;28;20135;-70
2022/03/03 06:33:35;;;;;;;238.32;82.95;;;;;;;-2.70;100.00;102091.31;4949184;28;20754;-70
2022/03/03 06:36:01;;;;;;;217.27;83.07;;;;;;;-2.61;100.00;102087.22;4976257;28;20041;-70
2022/03/03 06:38:27;;;;;;;235.25;89.15;;;;;;;-2.50;100.00;102095.28;4972824;28;20056;-70
2022/03/03 06:40:57;;;;;;;217.40;83.38;;;;;;;-2.35;100.00;102097.91;4982651;28;20042;-70
2022/03/03 06:43:23;;;;;;;217.73;83.93;;;;;;;-2.24;100.00;102106.84;4968238;28;20050;-70
2022/03/03 06:45:48;;;;;;;227.55;83.38;;;;;;;-1.86;100.00;102103.50;4984781;28;20048;-70
2022/03/03 06:48:14;;;;;;;220.77;86.93;;;;;;;-1.49;100.00;102101.03;4977514;28;20095;-70
2022/03/03 06:50:40;;;;;;;207.23;84.60;;;;;;;-1.20;100.00;102097.22;4979976;28;20111;-70
2022/03/03 06:53:09;;;;;;;205.20;84.88;;;;;;;-0.97;100.00;102092.16;4987439;28;20049;-68
2022/03/03 06:55:36;;;;;;;199.75;84.15;;;;;;;-0.67;100.00;102093.59;4954430;28;20057;-71
2022/03/03 06:58:02;;;;;;;197.75;82.05;;;;;;;-0.55;100.00;102104.16;4984149;28;20049;-70
2022/03/03 07:00:32;;;;;;;191.85;78.50;;;;;;;-0.34;100.00;102112.38;4959882;28;20049;-70
2022/03/03 07:02:59;;;;;;;181.60;81.30;;;;;;;-0.15;100.00;102100.44;4955833;28;20057;-70
2022/03/03 07:05:24;;;;;;;185.50;78.78;;;;;;;-0.07;100.00;102103.34;4964044;28;20148;-69
2022/03/03 07:07:52;;;;;;;169.43;74.38;;;;;;;0.22;100.00;102107.34;4964654;28;21219;-69
2022/03/03 07:10:24;;;;;;;183.25;76.72;;;;;;;0.53;100.00;102117.44;4969481;28;20605;-69
2022/03/03 07:12:56;;;;;;;161.75;74.88;;;;;;;1.12;100.00;102110.22;4937913;28;20789;-69
2022/03/03 07:15:23;;;;;;;150.63;72.65;;;;;;;1.54;100.00;102109.56;4964293;28;20021;-70
2022/03/03 07:17:55;;;;;;;129.88;66.90;;;;;;;1.76;100.00;102098.06;4965704;28;20121;-70
2022/03/03 07:20:29;;;;;;;126.10;64.68;;;;;;;2.10;100.00;102117.41;4967922;28;20060;-70
2022/03/03 07:22:59;;;;;;;121.63;60.83;;;;;;;2.25;100.00;102112.66;4965608;28;20022;-70
2022/03/03 07:25:51;;;;;;;115.22;60.58;;;;;;;2.31;100.00;102110.28;4964358;28;20128;-70
2022/03/03 07:28:19;;;;;;;105.03;55.25;;;;;;;2.20;100.00;102114.81;4983324;28;20057;-70
2022/03/03 07:30:44;;;;;;;104.38;56.00;;;;;;;2.24;100.00;102100.31;4962112;28;20052;-70
2022/03/03 07:33:17;;;;;;;103.82;53.25;;;;;;;2.61;100.00;102112.22;4972283;28;20062;-70
2022/03/03 07:35:45;;;;;;;95.25;51.58;;;;;;;2.56;100.00;102105.56;4964220;28;20029;-71
2022/03/03 07:38:14;;;;;;;100.32;52.38;;;;;;;2.32;100.00;102111.16;4951088;28;20076;-71
2022/03/03 07:40:41;;;;;;;102.97;53.00;;;;;;;2.47;100.00;102109.88;4984044;28;20037;-71
2022/03/03 07:43:08;;;;;;;89.90;51.08;;;;;;;2.67;100.00;102116.19;4966416;28;20042;-71
2022/03/03 07:45:34;;;;;;;101.03;52.70;;;;;;;3.25;100.00;102111.16;4962632;28;20044;-71
2022/03/03 07:47:59;;;;;;;94.55;53.28;;;;;;;3.85;100.00;102124.50;4982555;28;20038;-69
2022/03/03 07:50:25;;;;;;;89.93;51.13;;;;;;;4.58;100.00;102124.13;4966476;28;20058;-72
2022/03/03 07:52:52;;;;;;;97.90;54.65;;;;;;;5.21;100.00;102119.91;4980503;28;20038;-72
2022/03/03 07:55:17;;;;;;;81.97;50.25;;;;;;;5.64;100.00;102114.91;4964861;28;20054;-72
2022/03/03 07:57:52;;;;;;;90.80;50.00;;;;;;;6.15;100.00;102117.00;4980428;28;20072;-72
2022/03/03 08:00:18;;;;;;;86.72;49.42;;;;;;;6.08;100.00;102107.06;4958833;28;20036;-73
2022/03/03 08:02:45;;;;;;;81.80;47.05;;;;;;;6.40;100.00;102117.22;4967152;28;22513;-73
2022/03/03 08:05:11;;;;;;;73.18;44.05;;;;;;;6.54;100.00;102118.50;4965187;28;20038;-73
2022/03/03 08:07:43;;;;;;;74.90;44.25;;;;;;;6.71;100.00;102114.97;4952883;28;20046;-73
2022/03/03 08:10:10;;;;;;;72.28;42.88;;;;;;;6.58;100.00;102115.38;4948643;28;20037;-73
2022/03/03 08:12:35;;;;;;;71.88;41.42;;;;;;;6.65;100.00;102107.56;4960374;28;20504;-73
2022/03/03 08:15:01;;;;;;;66.85;41.25;;;;;;;6.56;100.00;102113.81;4953392;28;20069;-73
2022/03/03 08:17:26;;;;;;;73.20;42.53;;;;;;;6.75;100.00;102113.66;4969578;28;20488;-73
2022/03/03 08:19:54;;;;;;;67.95;42.00;;;;;;;6.91;100.00;102116.44;4967474;28;20481;-73
2022/03/03 08:22:24;;;;;;;68.65;41.00;;;;;;;6.96;100.00;102121.31;4964597;28;20113;-73
2022/03/03 08:24:53;;;;;;;65.28;41.30;;;;;;;7.02;100.00;102111.78;4976716;28;20073;-73
2022/03/03 08:27:20;;;;;;;63.38;40.90;;;;;;;6.94;100.00;102121.47;4953520;28;22554;-74
2022/03/03 08:29:46;;;;;;;63.78;39.55;;;;;;;7.05;100.00;102123.03;4961794;28;20029;-73
2022/03/03 08:32:16;;;;;;;63.40;40.35;;;;;;;7.40;99.18;102122.03;4946977;28;20041;-74
2022/03/03 08:35:08;;;;;;;65.82;38.35;;;;;;;7.56;100.00;102107.06;4981604;28;20088;-74
2022/03/03 08:37:36;;;;;;;62.80;40.63;;;;;;;7.96;100.00;102113.53;4947346;28;20054;-74
2022/03/03 08:40:05;;;;;;;59.50;38.08;;;;;;;8.04;99.75;102121.59;4964437;28;20171;-73
2022/03/03 08:42:36;;;;;;;54.85;36.35;;;;;;;7.82;76.05;102121.19;4979464;28;20064;-72
2022/03/03 08:45:04;;;;;;;58.15;38.35;;;;;;;7.92;100.00;102125.59;4956893;28;20068;-73
2022/03/03 08:47:30;;;;;;;63.42;37.45;;;;;;;7.79;75.16;102132.28;4984286;28;20045;-73
2022/03/03 08:49:59;;;;;;;55.83;37.60;;;;;;;7.51;82.30;102133.50;4956684;28;20085;-73
2022/03/03 08:52:26;;;;;;;58.85;37.67;;;;;;;7.79;75.89;102131.41;4963986;28;20022;-73
2022/03/03 08:54:52;;;;;;;56.55;38.08;;;;;;;7.84;77.18;102145.19;4942213;28;20146;-73
2022/03/03 08:57:17;;;;;;;51.58;35.47;;;;;;;7.84;81.37;102135.31;4971607;28;20536;-73
2022/03/03 08:59:43;;;;;;;55.55;35.60;;;;;;;8.01;72.17;102127.31;4982875;28;20486;-75
2022/03/03 09:02:11;;;;;;;50.72;34.10;;;;;;;8.08;73.31;102134.53;4948482;28;20658;-74
2022/03/03 09:04:37;;;;;;;51.17;34.22;;;;;;;8.08;73.03;102136.38;4950823;28;20608;-72
2022/03/03 09:07:02;;;;;;;56.30;34.95;;;;;;;8.28;68.23;102131.53;4975456;28;20053;-75
2022/03/03 09:09:28;;;;;;;51.53;35.13;;;;;;;8.19;67.90;102144.09;4972206;28;20053;-75
2022/03/03 09:11:53;;;;;;;50.17;34.47;;;;;;;8.21;73.81;102136.72;4963207;28;20037;-75
2022/03/03 09:14:19;;;;;;;54.78;36.10;;;;;;;8.43;68.04;102129.91;4967782;28;20049;-73
2022/03/03 09:16:44;;;;;;;49.45;34.55;;;;;;;8.73;71.60;102135.59;4963261;28;20041;-75
2022/03/03 09:19:09;;;;;;;53.92;34.25;;;;;;;8.90;69.31;102129.19;4976224;28;20053;-73
2022/03/03 09:21:35;;;;;;;48.63;33.80;;;;;;;9.20;65.23;102133.00;4973299;28;20092;-76
2022/03/03 09:24:01;;;;;;;51.85;33.90;;;;;;;9.26;64.96;102126.91;4981459;28;20951;-74
2022/03/03 09:26:27;;;;;;;45.22;30.33;;;;;;;9.17;59.52;102122.59;4964521;28;20073;-74
2022/03/03 09:28:53;;;;;;;42.92;29.83;;;;;;;8.91;57.46;102122.81;4982780;28;20070;-74
2022/03/03 09:31:19;;;;;;;47.22;31.30;;;;;;;8.89;60.12;102129.38;4976639;28;20098;-74
2022/03/03 09:33:44;;;;;;;48.10;30.27;;;;;;;9.08;59.07;102135.19;4974818;28;20046;-74
2022/03/03 09:36:10;;;;;;;47.53;30.55;;;;;;;9.28;58.42;102116.00;4981990;28;20038;-74
2022/03/03 09:38:35;;;;;;;45.22;30.35;;;;;;;9.10;56.24;102115.41;4948171;28;20054;-74
2022/03/03 09:41:01;;;;;;;49.53;30.63;;;;;;;9.08;56.72;102102.09;4963232;28;20037;-73
2022/03/03 09:43:28;;;;;;;42.50;30.20;;;;;;;9.16;57.50;102083.28;4976323;28;20055;-73
2022/03/03 09:45:53;;;;;;;41.30;29.38;;;;;;;9.49;56.32;102100.13;4940605;28;20356;-74
2022/03/03 09:48:19;;;;;;;41.35;27.17;;;;;;;9.52;53.08;102089.00;4980958;28;20041;-73
2022/03/03 09:50:44;;;;;;;42.22;28.25;;;;;;;9.32;54.88;102087.75;4966057;28;20046;-73
2022/03/03 09:53:16;;;;;;;39.80;28.52;;;;;;;9.31;53.51;102091.47;4952630;28;20033;-73
2022/03/03 09:55:44;;;;;;;38.15;26.48;;;;;;;8.95;53.58;102097.28;4971304;28;20051;-73
2022/03/03 09:58:10;;;;;;;44.10;29.88;;;;;;;8.98;54.93;102093.41;4970046;28;20034;-73
2022/03/03 10:00:39;;;;;;;39.53;28.10;;;;;;;9.47;54.19;102094.06;4985550;28;20029;-74
2022/03/03 10:03:14;;;;;;;38.38;27.85;;;;;;;9.40;55.90;102089.56;4964887;28;20136;-74
2022/03/03 10:05:47;;;;;;;42.88;28.50;;;;;;;9.29;54.66;102094.31;4962933;28;20037;-73
2022/03/03 10:08:18;;;;;;;36.95;26.38;;;;;;;9.42;53.38;102098.31;4964297;28;20049;-73
2022/03/03 10:10:49;;;;;;;38.90;26.52;;;;;;;9.46;53.11;102095.09;4978031;28;20073;-73
2022/03/03 10:13:16;;;;;;;38.35;26.08;;;;;;;9.62;53.65;102094.19;4980017;28;20043;-73
2022/03/03 10:15:44;;;;;;;38.28;25.98;;;;;;;9.99;52.72;102092.63;4939868;28;20449;-73
2022/03/03 10:18:14;;;;;;;39.72;29.05;;;;;;;10.00;52.68;102092.44;4985183;28;20042;-73
2022/03/03 10:20:45;;;;;;;36.83;25.10;;;;;;;10.17;50.82;102100.41;4969366;28;20145;-73
2022/03/03 10:23:10;;;;;;;34.28;25.30;;;;;;;10.24;53.14;102098.66;4985630;28;20033;-73
2022/03/03 10:25:38;;;;;;;33.45;24.70;;;;;;;10.65;51.64;102080.31;4978838;28;20052;-73
2022/03/03 10:28:15;;;;;;;32.70;22.83;;;;;;;10.78;47.47;102095.03;4975894;28;20064;-76
2022/03/03 10:31:01;;;;;;;35.30;24.58;;;;;;;10.74;47.30;102099.97;4966149;28;20099;-74
2022/03/03 10:33:33;;;;;;;33.88;25.63;;;;;;;10.58;49.17;102092.84;4955190;28;20064;-75
2022/03/03 10:35:58;;;;;;;33.95;24.35;;;;;;;11.02;47.73;102100.19;4954339;28;20033;-75
2022/03/03 10:38:23;;;;;;;30.60;22.40;;;;;;;11.08;46.84;102088.63;4973583;28;20565;-74
2022/03/03 10:40:49;;;;;;;32.13;21.92;;;;;;;11.31;47.28;102099.34;4980336;28;20029;-74
2022/03/03 10:43:14;;;;;;;36.40;24.15;;;;;;;11.45;48.25;102108.44;4958826;28;20490;-76
2022/03/03 10:46:00;;;;;;;29.77;22.15;;;;;;;11.57;45.24;102109.63;4973846;28;20141;-73
2022/03/03 10:48:26;;;;;;;33.22;24.00;;;;;;;11.61;47.67;102119.00;4966488;28;20034;-74
2022/03/03 10:50:54;;;;;;;31.33;23.17;;;;;;;11.71;46.78;102119.56;4954931;28;20053;-74
2022/03/03 10:53:21;;;;;;;32.75;23.67;;;;;;;11.10;47.60;102118.13;4985446;28;20046;-74
2022/03/03 10:56:00;;;;;;;33.92;24.88;;;;;;;11.42;46.74;102117.75;4976678;28;20100;-74
2022/03/03 10:58:44;;;;;;;29.25;22.45;;;;;;;11.75;46.43;102119.19;4983680;28;20049;-73